Time;durP1;ratioP1;P1;durP2;ratioP2;P2;SDS_P1;SDS_P2;PMS_P1;PMS_P2;Temp;Humidity;BMP_temperature;BMP_pressure;BME280_temperature;BME280_humidity;BME280_pressure;Samples;Min_cycle;Max_cycle;Signal;HPM_P1;HPM_P2
2021/05/29 00:17:00;;;;;;;5.30;4.90;;;;;;;16.21;60.55;94484.19;808059;72;33192;-79
2021/05/29 00:47:10;;;;;;;;;;;;;;;;;;;;;
2021/05/29 01:01:25;;;;;;;5.62;5.22;;;;;;;16.16;60.91;94507.67;827304;71;32730;-80
2021/05/29 01:31:31;;;;;;;5.10;4.70;;;;;;;15.68;60.85;94461.23;833978;71;32653;-80
2021/05/29 01:46:39;;;;;;;5.40;5.00;;;;;;;15.88;60.60;94495.47;833957;71;32821;-82
2021/05/29 02:01:46;;;;;;;5.40;5.00;;;;;;;15.80;61.37;94505.00;824787;70;33118;-83
2021/05/29 02:16:48;;;;;;;5.30;4.90;;;;;;;15.72;61.45;94479.89;809368;72;30359;-82
2021/05/29 02:46:14;;;;;;;5.08;4.78;;;;;;;15.82;61.16;94502.05;824203;71;32693;-80
2021/05/29 03:16:38;;;;;;;4.95;4.60;;;;;;;15.75;61.21;94503.08;835483;71;32751;-80
2021/05/29 03:31:28;;;;;;;4.90;4.60;;;;;;;15.85;59.78;94466.99;834127;71;33230;-81
2021/05/29 03:46:36;;;;;;;;;;;;;;;;;;;;;
2021/05/29 04:01:40;;;;;;;4.42;3.83;;;;;;;19.97;49.86;94492.30;824422;71;32771;-81
2021/05/29 04:16:34;;;;;;;5.37;4.20;;;;;;;22.05;44.10;94500.66;834217;71;32656;-84
2021/05/29 04:31:26;;;;;;;3.30;3.00;;;;;;;23.93;40.15;94514.36;828048;71;31700;-80
2021/05/29 04:46:28;;;;;;;3.90;3.53;;;;;;;25.13;37.31;94501.12;828872;71;33124;-83
2021/05/29 05:01:55;;;;;;;3.10;2.90;;;;;;;25.90;35.39;94511.59;834165;71;32909;-84
2021/05/29 05:16:20;;;;;;;3.37;3.17;;;;;;;25.61;38.01;94505.41;827461;71;33248;-78
2021/05/29 05:31:15;;;;;;;7.20;3.20;;;;;;;25.11;39.44;94512.23;827891;71;32683;-76
2021/05/29 05:46:11;;;;;;;3.90;3.70;;;;;;;24.78;40.23;94498.54;834101;71;30277;-73
2021/05/29 06:01:08;;;;;;;3.90;3.60;;;;;;;24.79;39.78;94502.74;831917;71;30239;-75
2021/05/29 06:31:16;;;;;;;8.10;6.73;;;;;;;24.89;39.20;94509.30;816925;71;32809;-75
2021/05/29 06:46:09;;;;;;;3.60;3.40;;;;;;;24.69;38.28;94496.77;825288;71;29769;-78
2021/05/29 07:01:10;;;;;;;5.27;3.50;;;;;;;24.39;39.59;94447.58;808906;71;29795;-76
2021/05/29 07:16:10;;;;;;;3.20;3.00;;;;;;;25.09;39.48;94482.89;818205;71;30410;-77
2021/05/29 07:31:09;;;;;;;5.47;3.47;;;;;;;25.32;38.93;94475.84;824927;71;29750;-75
2021/05/29 07:46:21;;;;;;;4.20;3.80;;;;;;;25.11;36.55;94463.89;827597;71;32695;-77
2021/05/29 08:01:15;;;;;;;3.37;3.17;;;;;;;25.07;36.57;94455.06;822684;70;32765;-76
2021/05/29 08:16:10;;;;;;;3.20;3.00;;;;;;;20.73;37.34;93758.11;823784;71;30270;-77
2021/05/29 08:31:08;;;;;;;2.87;2.77;;;;;;;25.48;36.04;94451.28;824506;71;30033;-75
2021/05/29 08:46:09;;;;;;;2.90;2.70;;;;;;;25.64;35.86;94445.52;824020;71;30404;-79
2021/05/29 09:01:54;;;;;;;2.60;2.50;;;;;;;;;;814676;71;30397;-75
2021/05/29 09:16:09;;;;;;;2.50;2.40;;;;;;;21.66;34.64;93790.49;835550;71;30364;-79
2021/05/29 09:31:18;;;;;;;2.53;2.40;;;;;;;26.31;33.64;94402.92;818636;71;32820;-79
2021/05/29 09:46:09;;;;;;;2.17;2.07;;;;;;;26.51;32.02;94389.76;828070;71;30270;-77
2021/05/29 10:01:52;;;;;;;2.60;2.50;;;;;;;26.66;31.75;94381.05;828151;71;32710;-76
2021/05/29 10:16:09;;;;;;;2.50;2.40;;;;;;;27.00;31.67;165790.28;828572;71;30305;-77
2021/05/29 10:31:12;;;;;;;2.43;2.23;;;;;;;26.97;31.66;94367.78;834737;71;32061;-77
2021/05/29 10:46:10;;;;;;;3.60;3.30;;;;;;;26.66;31.57;123554.15;834005;71;30799;-76
2021/05/29 11:01:09;;;;;;;5.40;2.90;;;;;;;26.70;31.63;94356.80;835319;71;30472;-76
2021/05/29 11:16:13;;;;;;;2.80;2.70;;;;;;;;;;819145;71;30394;-76
2021/05/29 11:31:08;;;;;;;2.90;2.73;;;;;;;;;;821138;71;29728;-77
2021/05/29 11:46:17;;;;;;;3.77;2.73;;;;;;;26.57;32.55;77535.80;818063;71;29753;-81
2021/05/29 12:01:16;;;;;;;2.97;2.80;;;;;;;;;;826993;71;33182;-77
2021/05/29 12:16:11;;;;;;;2.97;2.87;;;;;;;26.77;32.61;94311.00;822446;70;30362;-78
2021/05/29 12:31:13;;;;;;;4.80;3.33;;;;;;;;;;827112;71;33366;-77
2021/05/29 12:46:25;;;;;;;3.37;3.17;;;;;;;26.31;36.66;94297.23;827882;71;29739;-76
2021/05/29 13:01:27;;;;;;;3.10;2.90;;;;;;;26.15;35.87;94290.39;833489;71;33195;-76
2021/05/29 13:16:09;;;;;;;3.97;3.10;;;;;;;25.85;36.67;94285.53;828019;71;30209;-77
2021/05/29 13:31:14;;;;;;;3.70;3.40;;;;;;;25.33;40.02;94286.66;826951;70;33332;-77
2021/05/29 13:46:10;;;;;;;3.13;2.93;;;;;;;25.44;39.89;94290.66;834110;71;30803;-78
2021/05/29 14:01:08;;;;;;;3.70;3.40;;;;;;;25.16;40.76;94293.55;820278;71;29753;-77
2021/05/29 14:16:10;;;;;;;4.30;4.00;;;;;;;24.49;38.37;94291.05;823087;71;30920;-76
2021/05/29 14:31:10;;;;;;;7.50;6.80;;;;;;;24.25;38.61;94293.88;826136;70;30620;-76
2021/05/29 14:46:18;;;;;;;4.07;3.77;;;;;;;24.09;38.65;94299.02;820393;71;33330;-77
2021/05/29 15:01:56;;;;;;;4.37;4.07;;;;;;;23.88;37.97;94305.06;833979;71;29664;-78
2021/05/29 15:16:10;;;;;;;4.20;3.90;;;;;;;23.34;38.36;94309.39;825429;71;30427;-78
2021/05/29 15:31:09;;;;;;;4.50;4.20;;;;;;;24.00;41.58;94320.80;823725;71;30473;-76
2021/05/29 15:46:12;;;;;;;5.47;4.93;;;;;;;23.56;38.49;94324.98;828361;71;31541;-77
2021/05/29 16:01:13;;;;;;;5.03;4.63;;;;;;;23.02;38.91;94332.69;819121;71;30144;-78
2021/05/29 16:16:17;;;;;;;5.00;4.60;;;;;;;22.44;39.88;94345.33;823051;71;33012;-78
2021/05/29 16:31:11;;;;;;;6.67;6.00;;;;;;;21.69;40.56;94357.23;782844;74;29972;-78
2021/05/29 16:46:32;;;;;;;6.63;6.13;;;;;;;21.15;41.34;94378.57;816229;71;33059;-77
2021/05/29 17:01:15;;;;;;;7.00;6.50;;;;;;;20.69;42.28;94388.48;820847;71;33357;-77
2021/05/29 17:16:10;;;;;;;9.23;8.33;;;;;;;20.27;48.34;94397.20;829056;71;30270;-75
2021/05/29 17:31:11;;;;;;;9.78;7.25;;;;;;;21.66;44.54;94408.71;824444;71;31628;-77
2021/05/29 17:46:08;;;;;;;8.68;7.80;;;;;;;20.43;44.55;94410.45;829035;71;29694;-77
2021/05/29 18:01:13;;;;;;;8.05;7.35;;;;;;;19.74;45.41;94409.64;827382;71;32576;-77
2021/05/29 18:16:25;;;;;;;8.23;7.53;;;;;;;19.22;46.17;94422.13;835285;71;32678;-78
2021/05/29 18:31:09;;;;;;;7.90;7.20;;;;;;;18.90;46.80;94446.06;834679;71;30230;-73
2021/05/29 18:46:12;;;;;;;7.60;7.00;;;;;;;18.72;47.21;94465.52;829854;71;32075;-80
2021/05/29 19:16:11;;;;;;;6.30;5.90;;;;;;;18.41;47.47;94491.45;828802;71;31435;-80
2021/05/29 19:31:10;;;;;;;5.90;5.50;;;;;;;18.28;47.54;94489.92;828449;71;30375;-81
2021/05/29 20:16:18;;;;;;;5.10;4.70;;;;;;;17.98;47.67;94514.09;831955;71;32598;-78
2021/05/29 20:31:16;;;;;;;4.25;3.75;;;;;;;17.97;47.86;94501.38;827699;71;32697;-81
2021/05/29 20:46:10;;;;;;;5.30;4.70;;;;;;;18.19;52.43;94502.78;828388;71;30335;-79
2021/05/29 21:02:00;;;;;;;4.75;4.45;;;;;;;18.87;51.15;94507.89;834198;71;32658;-80
2021/05/29 21:16:13;;;;;;;4.70;4.40;;;;;;;19.24;49.10;94489.06;833985;71;30256;-78
2021/05/29 21:31:10;;;;;;;5.15;4.78;;;;;;;19.51;48.72;94488.78;827920;71;30277;-79
2021/05/29 22:01:22;;;;;;;5.47;5.08;;;;;;;19.66;46.01;94489.11;834270;71;30263;-78
2021/05/29 22:31:09;;;;;;;4.87;4.58;;;;;;;19.60;45.66;94477.95;828485;71;30337;-78
2021/05/29 22:46:10;;;;;;;5.10;4.80;;;;;;;19.48;46.05;94478.81;835787;71;30388;-77
2021/05/29 23:01:09;;;;;;;5.10;4.65;;;;;;;19.44;46.40;94471.86;835781;71;29685;-80
2021/05/29 23:16:28;;;;;;;4.90;4.50;;;;;;;19.32;46.23;94458.88;824348;71;32793;-79
2021/05/29 23:31:09;;;;;;;4.20;3.90;;;;;;;19.11;46.41;94454.36;831929;70;29641;-84
2021/05/29 23:46:16;;;;;;;4.10;3.80;;;;;;;19.07;46.60;94444.19;833862;71;33193;-79
